createdAt,value
2019-03-26T00:02:36.441Z,4.10
2019-03-26T00:05:24.630Z,3.97
2019-03-26T00:08:13.140Z,4.17
2019-03-26T00:11:01.744Z,4.27
2019-03-26T00:13:50.316Z,4.31
2019-03-26T00:16:38.467Z,4.15
2019-03-26T00:19:26.755Z,4.27
2019-03-26T00:22:15.218Z,4.13
2019-03-26T00:25:03.393Z,4.19
2019-03-26T00:27:51.628Z,4.36
2019-03-26T00:30:40.150Z,4.38
2019-03-26T00:33:36.196Z,4.42
2019-03-26T00:36:18.076Z,4.63
2019-03-26T00:39:07.517Z,4.47
2019-03-26T00:41:56.000Z,4.54
2019-03-26T00:44:44.180Z,4.10
2019-03-26T00:47:32.498Z,4.18
2019-03-26T00:50:20.344Z,4.19
2019-03-26T00:53:08.521Z,4.22
2019-03-26T00:55:56.731Z,4.35
2019-03-26T00:58:45.116Z,4.31
2019-03-26T01:01:33.380Z,4.24
2019-03-26T01:04:32.099Z,4.36
2019-03-26T01:07:12.362Z,4.43
2019-03-26T01:10:00.626Z,4.40
2019-03-26T01:12:49.052Z,4.25
2019-03-26T01:15:37.261Z,4.37
2019-03-26T01:18:25.530Z,4.28
2019-03-26T01:21:14.387Z,4.15
2019-03-26T01:24:03.131Z,4.14
2019-03-26T01:26:51.650Z,4.13
2019-03-26T01:29:39.968Z,4.13
2019-03-26T01:32:28.575Z,3.93
2019-03-26T01:35:16.483Z,3.89
2019-03-26T01:38:04.878Z,3.71
2019-03-26T01:40:53.096Z,3.60
2019-03-26T01:43:41.391Z,3.44
2019-03-26T01:46:29.647Z,3.74
2019-03-26T01:49:18.151Z,3.78
2019-03-26T01:52:06.292Z,3.74
2019-03-26T01:54:54.979Z,3.64
2019-03-26T01:57:43.293Z,3.67
2019-03-26T02:00:31.794Z,3.69
2019-03-26T02:03:20.447Z,3.60
2019-03-26T02:06:08.915Z,3.43
2019-03-26T02:08:57.105Z,3.45
2019-03-26T02:11:45.408Z,3.38
2019-03-26T02:14:34.339Z,3.29
2019-03-26T02:17:23.652Z,3.20
2019-03-26T02:20:12.191Z,3.32
2019-03-26T02:23:00.408Z,3.40
2019-03-26T02:25:48.914Z,3.56
2019-03-26T02:28:37.572Z,3.42
2019-03-26T02:31:26.060Z,3.48
2019-03-26T02:34:14.150Z,3.59
2019-03-26T02:37:02.696Z,3.70
2019-03-26T02:39:51.633Z,3.58
2019-03-26T02:42:39.961Z,3.47
2019-03-26T02:45:28.108Z,3.56
2019-03-26T02:48:16.437Z,3.31
2019-03-26T02:51:04.966Z,3.50
2019-03-26T02:53:52.937Z,3.24
2019-03-26T02:56:41.082Z,3.26
2019-03-26T02:59:29.364Z,3.29
2019-03-26T03:02:17.712Z,3.29
2019-03-26T03:05:06.191Z,3.12
2019-03-26T03:07:54.176Z,3.06
2019-03-26T03:10:42.407Z,3.13
2019-03-26T03:13:30.553Z,3.08
2019-03-26T03:16:19.226Z,3.06
2019-03-26T03:19:07.248Z,3.03
2019-03-26T03:21:55.382Z,3.09
2019-03-26T03:24:43.395Z,3.14
2019-03-26T03:27:31.899Z,3.07
2019-03-26T03:30:22.359Z,2.91
2019-03-26T03:33:11.213Z,2.81
2019-03-26T03:35:59.358Z,2.88
2019-03-26T03:38:47.598Z,2.80
2019-03-26T03:41:36.122Z,2.86
2019-03-26T03:44:25.060Z,2.93
2019-03-26T03:47:14.834Z,2.97
2019-03-26T03:50:03.480Z,3.05
2019-03-26T03:52:51.819Z,3.05
2019-03-26T03:55:40.276Z,3.12
2019-03-26T03:58:30.421Z,3.23
2019-03-26T04:01:18.876Z,3.06
2019-03-26T04:04:06.952Z,3.13
2019-03-26T04:06:54.767Z,3.11
2019-03-26T04:09:43.529Z,3.18
2019-03-26T04:12:31.780Z,3.07
2019-03-26T04:15:20.176Z,3.18
2019-03-26T04:18:08.428Z,3.23
2019-03-26T04:20:57.642Z,3.14
2019-03-26T04:23:46.050Z,3.02
2019-03-26T04:26:34.846Z,3.04
2019-03-26T04:29:23.088Z,3.20
2019-03-26T04:32:11.971Z,3.16
2019-03-26T04:34:59.910Z,3.11
2019-03-26T04:37:48.330Z,3.28
2019-03-26T04:40:36.627Z,3.20
2019-03-26T04:43:25.307Z,3.19
2019-03-26T04:46:13.566Z,3.37
2019-03-26T04:49:01.459Z,3.43
2019-03-26T04:51:50.163Z,3.29
2019-03-26T04:54:38.629Z,3.20
2019-03-26T04:57:27.354Z,3.31
2019-03-26T05:00:15.440Z,3.43
2019-03-26T05:03:03.876Z,3.60
2019-03-26T05:05:52.489Z,3.36
2019-03-26T05:08:41.199Z,3.48
2019-03-26T05:11:32.799Z,3.57
2019-03-26T05:14:21.190Z,3.54
2019-03-26T05:17:09.586Z,3.48
2019-03-26T05:19:58.212Z,3.35
2019-03-26T05:22:46.386Z,3.17
2019-03-26T05:25:35.182Z,3.29
2019-03-26T05:28:23.635Z,3.37
2019-03-26T05:31:11.808Z,3.29
2019-03-26T05:34:00.106Z,3.36
2019-03-26T05:36:51.465Z,3.32
2019-03-26T05:39:38.530Z,3.04
2019-03-26T05:42:26.977Z,3.06
2019-03-26T05:45:14.975Z,3.23
2019-03-26T05:48:03.699Z,3.14
2019-03-26T05:50:52.259Z,3.15
2019-03-26T05:53:40.162Z,3.28
2019-03-26T05:56:30.568Z,3.69
2019-03-26T05:59:18.467Z,3.81
2019-03-26T06:02:14.315Z,3.74
2019-03-26T06:04:57.203Z,3.73
2019-03-26T06:07:45.311Z,3.77
2019-03-26T06:10:34.018Z,3.52
2019-03-26T06:13:22.865Z,3.50
2019-03-26T06:16:11.564Z,3.53
2019-03-26T06:19:00.032Z,3.45
2019-03-26T06:21:48.559Z,3.53
2019-03-26T06:24:37.613Z,3.51
2019-03-26T06:27:26.168Z,3.67
2019-03-26T06:30:14.925Z,3.91
2019-03-26T06:33:03.269Z,3.89
2019-03-26T06:35:51.744Z,3.76
2019-03-26T06:38:40.514Z,3.79
2019-03-26T06:41:29.037Z,3.84
2019-03-26T06:44:17.375Z,3.83
2019-03-26T06:47:05.334Z,3.91
2019-03-26T06:49:53.639Z,3.95
2019-03-26T06:52:41.984Z,3.95
2019-03-26T06:55:30.221Z,4.00
2019-03-26T06:58:18.103Z,4.16
2019-03-26T07:01:06.460Z,4.16
2019-03-26T07:03:54.557Z,4.16
2019-03-26T07:06:43.304Z,4.24
2019-03-26T07:09:31.217Z,4.32
2019-03-26T07:12:19.365Z,4.66
2019-03-26T07:15:09.334Z,4.73
2019-03-26T07:17:57.639Z,4.52
2019-03-26T07:20:45.860Z,4.70
2019-03-26T07:23:34.031Z,4.67
2019-03-26T07:26:22.344Z,4.70
2019-03-26T07:29:10.661Z,4.37
2019-03-26T07:31:59.436Z,4.33
2019-03-26T07:34:47.981Z,4.28
2019-03-26T07:37:45.046Z,4.41
2019-03-26T07:40:26.343Z,4.79
2019-03-26T07:43:14.587Z,4.97
2019-03-26T07:46:03.000Z,4.88
2019-03-26T07:48:51.216Z,5.08
2019-03-26T07:51:39.653Z,4.72
2019-03-26T07:54:27.586Z,4.44
2019-03-26T07:57:16.089Z,4.66
2019-03-26T08:00:05.085Z,4.87
2019-03-26T08:02:53.717Z,5.06
2019-03-26T08:05:42.053Z,4.88
2019-03-26T08:08:29.921Z,4.80
2019-03-26T08:11:18.480Z,4.85
2019-03-26T08:14:06.875Z,5.09
2019-03-26T08:16:55.034Z,5.15
2019-03-26T08:19:43.272Z,4.92
2019-03-26T08:22:31.557Z,5.06
2019-03-26T08:25:19.860Z,5.07
2019-03-26T08:28:08.748Z,5.21
2019-03-26T08:30:56.949Z,5.41
2019-03-26T08:33:45.328Z,6.27
2019-03-26T08:36:34.173Z,6.33
2019-03-26T08:39:22.497Z,6.90
2019-03-26T08:42:11.041Z,7.49
2019-03-26T08:44:59.080Z,7.86
2019-03-26T08:47:47.136Z,7.57
2019-03-26T08:50:35.018Z,7.16
2019-03-26T08:53:22.826Z,6.72
2019-03-26T08:56:11.149Z,7.37
2019-03-26T08:58:59.430Z,8.41
2019-03-26T09:01:47.751Z,8.51
2019-03-26T09:04:35.709Z,7.70
2019-03-26T09:07:24.001Z,7.19
2019-03-26T09:10:13.372Z,7.23
2019-03-26T09:13:01.438Z,6.77
2019-03-26T09:15:49.388Z,6.34
2019-03-26T09:18:37.488Z,6.77
2019-03-26T09:21:25.378Z,7.02
2019-03-26T09:24:13.285Z,6.82
2019-03-26T09:27:01.513Z,7.11
2019-03-26T09:29:49.449Z,7.35
2019-03-26T09:32:38.127Z,7.35
2019-03-26T09:35:26.605Z,7.29
2019-03-26T09:38:14.931Z,7.53
2019-03-26T09:41:02.923Z,7.35
2019-03-26T09:43:51.035Z,6.93
2019-03-26T09:46:38.956Z,6.71
2019-03-26T09:49:27.469Z,6.94
2019-03-26T09:52:15.559Z,7.06
2019-03-26T09:55:03.926Z,7.41
2019-03-26T09:57:51.861Z,7.90
2019-03-26T10:00:40.631Z,7.46
2019-03-26T10:03:28.658Z,7.12
2019-03-26T10:06:23.267Z,7.12
2019-03-26T10:09:07.600Z,7.16
2019-03-26T10:11:56.134Z,6.93
2019-03-26T10:14:43.955Z,6.57
2019-03-26T10:17:31.640Z,6.49
2019-03-26T10:20:19.761Z,6.02
2019-03-26T10:23:07.949Z,6.09
2019-03-26T10:25:56.330Z,6.13
2019-03-26T10:28:44.750Z,6.81
2019-03-26T10:31:32.936Z,7.12
2019-03-26T10:34:20.837Z,7.79
2019-03-26T10:37:09.233Z,7.67
2019-03-26T10:39:57.394Z,7.79
2019-03-26T10:42:45.607Z,7.17
2019-03-26T10:45:33.579Z,7.30
2019-03-26T10:48:21.923Z,7.85
2019-03-26T10:51:10.281Z,8.07
2019-03-26T10:53:58.231Z,8.01
2019-03-26T10:56:46.364Z,7.83
2019-03-26T10:59:34.600Z,7.41
2019-03-26T11:02:23.026Z,7.45
2019-03-26T11:05:11.329Z,7.11
2019-03-26T11:07:59.311Z,7.67
2019-03-26T11:10:47.704Z,7.72
2019-03-26T11:13:35.996Z,8.10
2019-03-26T11:16:24.124Z,7.94
2019-03-26T11:19:12.846Z,7.85
2019-03-26T11:22:00.906Z,8.07
2019-03-26T11:24:48.716Z,8.77
2019-03-26T11:27:36.826Z,8.69
2019-03-26T11:30:24.436Z,8.92
2019-03-26T11:33:12.411Z,8.63
2019-03-26T11:36:00.344Z,7.79
2019-03-26T11:38:48.838Z,7.50
2019-03-26T11:41:36.736Z,7.89
2019-03-26T11:44:24.912Z,7.70
2019-03-26T11:47:13.008Z,7.12
2019-03-26T11:50:04.602Z,7.60
2019-03-26T11:52:51.646Z,8.00
2019-03-26T11:55:39.862Z,7.60
2019-03-26T11:58:30.927Z,7.91
2019-03-26T12:01:17.413Z,7.89
2019-03-26T12:04:06.260Z,7.89
2019-03-26T12:06:54.661Z,8.25
2019-03-26T12:09:46.465Z,8.43
2019-03-26T12:12:32.474Z,8.25
2019-03-26T12:15:20.759Z,8.27
2019-03-26T12:18:09.350Z,8.74
2019-03-26T12:20:57.509Z,8.97
2019-03-26T12:23:45.737Z,8.76
2019-03-26T12:26:33.810Z,8.68
2019-03-26T12:29:21.976Z,8.10
2019-03-26T12:32:10.546Z,7.57
2019-03-26T12:34:58.438Z,8.12
2019-03-26T12:37:46.577Z,7.74
2019-03-26T12:40:34.524Z,8.09
2019-03-26T12:43:22.592Z,8.73
2019-03-26T12:46:10.638Z,9.22
2019-03-26T12:48:58.616Z,9.18
2019-03-26T12:51:46.653Z,9.03
2019-03-26T12:54:34.939Z,8.23
2019-03-26T12:57:22.840Z,7.68
2019-03-26T13:00:11.152Z,7.74
2019-03-26T13:02:58.855Z,8.05
2019-03-26T13:05:47.748Z,8.18
2019-03-26T13:08:35.690Z,8.25
2019-03-26T13:11:23.889Z,8.47
2019-03-26T13:14:11.837Z,8.44
2019-03-26T13:17:00.070Z,8.40
2019-03-26T13:19:48.014Z,8.53
2019-03-26T13:22:35.741Z,8.92
2019-03-26T13:25:23.966Z,9.02
2019-03-26T13:28:12.446Z,8.96
2019-03-26T13:31:00.342Z,8.89
2019-03-26T13:33:48.409Z,8.59
2019-03-26T13:36:36.994Z,8.45
2019-03-26T13:39:25.258Z,8.90
2019-03-26T13:42:13.228Z,8.45
2019-03-26T13:45:01.535Z,8.32
2019-03-26T13:47:49.840Z,8.91
2019-03-26T13:50:38.161Z,9.05
2019-03-26T13:53:26.428Z,8.66
2019-03-26T13:56:14.172Z,8.38
2019-03-26T13:59:02.119Z,8.55
2019-03-26T14:01:50.233Z,8.18
2019-03-26T14:04:38.399Z,8.08
2019-03-26T14:07:26.375Z,7.82
2019-03-26T14:10:14.541Z,8.22
2019-03-26T14:13:02.742Z,8.59
2019-03-26T14:15:51.312Z,8.75
2019-03-26T14:18:39.552Z,9.01
2019-03-26T14:21:27.475Z,9.24
2019-03-26T14:24:15.894Z,9.31
2019-03-26T14:27:04.616Z,9.12
2019-03-26T14:29:52.404Z,8.27
2019-03-26T14:32:40.120Z,8.12
2019-03-26T14:35:28.054Z,7.88
2019-03-26T14:38:16.142Z,7.85
2019-03-26T14:41:04.672Z,7.95
2019-03-26T14:43:53.120Z,8.45
2019-03-26T14:46:41.139Z,8.54
2019-03-26T14:49:29.053Z,8.37
2019-03-26T14:52:17.120Z,8.33
2019-03-26T14:55:05.632Z,8.39
2019-03-26T14:57:53.777Z,8.81
2019-03-26T15:00:41.716Z,8.75
2019-03-26T15:03:30.165Z,8.96
2019-03-26T15:06:18.130Z,8.76
2019-03-26T15:09:08.745Z,8.68
2019-03-26T15:11:57.021Z,8.44
2019-03-26T15:14:45.298Z,8.10
2019-03-26T15:17:33.490Z,8.01
2019-03-26T15:20:21.515Z,8.12
2019-03-26T15:23:09.745Z,8.05
2019-03-26T15:25:57.673Z,7.94
2019-03-26T15:28:45.924Z,7.81
2019-03-26T15:31:34.022Z,8.03
2019-03-26T15:34:35.360Z,8.31
2019-03-26T15:37:11.972Z,8.50
2019-03-26T15:39:59.868Z,8.60
2019-03-26T15:42:48.017Z,8.32
2019-03-26T15:45:36.190Z,8.38
2019-03-26T15:48:24.184Z,8.30
2019-03-26T15:51:12.180Z,8.27
2019-03-26T15:54:00.521Z,7.99
2019-03-26T15:56:48.480Z,8.10
2019-03-26T15:59:37.081Z,8.26
2019-03-26T16:02:24.988Z,8.17
2019-03-26T16:05:14.502Z,8.14
2019-03-26T16:08:02.787Z,8.08
2019-03-26T16:10:50.756Z,7.89
2019-03-26T16:13:38.898Z,7.87
2019-03-26T16:16:26.553Z,7.65
2019-03-26T16:19:14.113Z,7.61
2019-03-26T16:22:02.213Z,7.49
2019-03-26T16:24:53.259Z,7.37
2019-03-26T16:27:40.116Z,7.42
2019-03-26T16:30:30.609Z,7.34
2019-03-26T16:33:18.790Z,7.21
2019-03-26T16:36:07.416Z,6.99
2019-03-26T16:38:56.104Z,7.07
2019-03-26T16:41:49.260Z,7.14
2019-03-26T16:44:33.952Z,7.39
2019-03-26T16:47:22.263Z,7.47
2019-03-26T16:50:10.801Z,7.45
2019-03-26T16:52:58.693Z,7.41
2019-03-26T16:55:46.910Z,7.35
2019-03-26T16:58:35.223Z,7.30
2019-03-26T17:01:23.031Z,7.20
2019-03-26T17:04:11.014Z,7.14
2019-03-26T17:06:59.666Z,7.23
2019-03-26T17:09:47.940Z,7.17
2019-03-26T17:12:35.864Z,7.06
2019-03-26T17:15:24.275Z,7.08
2019-03-26T17:18:12.967Z,7.06
2019-03-26T17:21:01.097Z,7.15
2019-03-26T17:23:49.017Z,6.86
2019-03-26T17:26:37.341Z,6.83
2019-03-26T17:29:25.809Z,6.84
2019-03-26T17:32:14.517Z,6.57
2019-03-26T17:35:03.051Z,6.75
2019-03-26T17:37:59.397Z,6.76
2019-03-26T17:40:41.164Z,6.56
2019-03-26T17:43:29.289Z,6.70
2019-03-26T17:46:17.455Z,6.49
2019-03-26T17:49:05.864Z,6.56
2019-03-26T17:51:54.001Z,6.35
2019-03-26T17:54:41.911Z,6.31
2019-03-26T17:57:29.968Z,6.39
2019-03-26T18:00:21.636Z,6.22
2019-03-26T18:03:09.540Z,6.17
2019-03-26T18:05:57.498Z,6.16
2019-03-26T18:08:45.815Z,6.05
2019-03-26T18:11:33.517Z,6.03
2019-03-26T18:14:21.559Z,5.98
2019-03-26T18:17:09.495Z,6.08
2019-03-26T18:19:57.414Z,5.92
2019-03-26T18:22:45.050Z,5.79
2019-03-26T18:25:33.139Z,5.85
2019-03-26T18:28:21.653Z,5.73
2019-03-26T18:31:09.679Z,5.68
2019-03-26T18:33:57.499Z,5.73
2019-03-26T18:36:45.688Z,5.70
2019-03-26T18:39:33.887Z,5.71
2019-03-26T18:42:21.995Z,5.67
2019-03-26T18:45:09.591Z,5.64
2019-03-26T18:47:57.628Z,5.54
2019-03-26T18:50:45.604Z,5.52
2019-03-26T18:53:33.877Z,5.61
2019-03-26T18:56:22.652Z,5.48
2019-03-26T18:59:11.131Z,5.61
2019-03-26T19:01:58.887Z,5.49
2019-03-26T19:04:47.713Z,5.49
2019-03-26T19:07:35.874Z,5.54
2019-03-26T19:10:29.482Z,5.41
2019-03-26T19:13:19.854Z,5.33
2019-03-26T19:16:07.285Z,5.25
2019-03-26T19:18:56.300Z,5.45
2019-03-26T19:21:44.527Z,5.29
2019-03-26T19:24:32.672Z,5.22
2019-03-26T19:27:20.758Z,5.14
2019-03-26T19:30:09.291Z,5.28
2019-03-26T19:32:57.970Z,5.23
2019-03-26T19:35:46.086Z,5.29
2019-03-26T19:38:33.686Z,5.15
2019-03-26T19:41:22.221Z,5.01
2019-03-26T19:44:09.882Z,5.10
2019-03-26T19:46:57.844Z,5.34
2019-03-26T19:49:45.710Z,5.22
2019-03-26T19:52:34.091Z,5.11
2019-03-26T19:55:22.106Z,5.25
2019-03-26T19:58:10.386Z,5.10
2019-03-26T20:00:58.110Z,5.03
2019-03-26T20:03:46.138Z,5.04
2019-03-26T20:06:34.086Z,4.87
2019-03-26T20:09:22.153Z,5.03
2019-03-26T20:12:10.240Z,5.02
2019-03-26T20:14:58.191Z,4.93
2019-03-26T20:17:48.708Z,5.00
2019-03-26T20:20:36.674Z,4.91
2019-03-26T20:23:24.297Z,4.91
2019-03-26T20:26:12.251Z,4.94
2019-03-26T20:29:00.402Z,4.75
2019-03-26T20:31:48.284Z,4.75
2019-03-26T20:34:36.055Z,4.84
2019-03-26T20:37:24.067Z,4.82
2019-03-26T20:40:13.793Z,4.71
2019-03-26T20:43:01.550Z,4.65
2019-03-26T20:45:49.991Z,4.79
2019-03-26T20:48:37.766Z,4.83
2019-03-26T20:51:25.974Z,4.81
2019-03-26T20:54:14.034Z,4.70
2019-03-26T20:57:01.684Z,4.68
2019-03-26T20:59:49.657Z,4.63
2019-03-26T21:02:37.701Z,4.65
2019-03-26T21:05:25.787Z,4.51
2019-03-26T21:08:14.231Z,4.48
2019-03-26T21:11:02.263Z,4.56
2019-03-26T21:13:51.230Z,4.60
2019-03-26T21:16:39.459Z,4.58
2019-03-26T21:19:28.080Z,4.52
2019-03-26T21:22:16.038Z,4.48
2019-03-26T21:25:04.465Z,4.48
2019-03-26T21:27:56.309Z,4.45
2019-03-26T21:30:44.525Z,4.30
2019-03-26T21:33:32.668Z,4.29
2019-03-26T21:36:20.896Z,4.32
2019-03-26T21:39:09.334Z,4.40
2019-03-26T21:41:57.305Z,4.29
2019-03-26T21:44:45.369Z,4.32
2019-03-26T21:47:33.794Z,4.28
2019-03-26T21:50:22.046Z,4.39
2019-03-26T21:53:10.231Z,4.37
2019-03-26T21:56:06.206Z,4.25
2019-03-26T21:58:48.631Z,4.33
2019-03-26T22:01:36.494Z,4.18
2019-03-26T22:04:24.536Z,4.13
2019-03-26T22:07:13.101Z,4.16
2019-03-26T22:10:01.154Z,4.16
2019-03-26T22:12:49.642Z,4.06
2019-03-26T22:15:37.766Z,4.09
2019-03-26T22:18:27.169Z,4.18
2019-03-26T22:21:15.485Z,3.93
2019-03-26T22:24:03.468Z,4.07
2019-03-26T22:26:51.206Z,4.05
2019-03-26T22:29:39.449Z,3.83
2019-03-26T22:32:27.346Z,3.70
2019-03-26T22:35:15.151Z,3.71
2019-03-26T22:38:03.126Z,3.98
2019-03-26T22:40:51.061Z,3.95
2019-03-26T22:43:39.283Z,3.77
2019-03-26T22:46:27.041Z,3.77
2019-03-26T22:49:14.786Z,3.96
2019-03-26T22:52:04.329Z,3.74
2019-03-26T22:54:52.873Z,3.84
2019-03-26T22:57:41.051Z,3.95
2019-03-26T23:00:34.274Z,3.64
2019-03-26T23:03:22.853Z,3.94
2019-03-26T23:06:10.968Z,3.92
2019-03-26T23:08:58.897Z,3.80
2019-03-26T23:11:46.981Z,3.89
2019-03-26T23:14:44.918Z,3.77
2019-03-26T23:17:24.930Z,3.66
2019-03-26T23:20:13.106Z,3.53
2019-03-26T23:23:01.194Z,3.56
2019-03-26T23:25:49.644Z,3.61
2019-03-26T23:28:37.591Z,3.60
2019-03-26T23:31:25.574Z,3.54
2019-03-26T23:34:13.607Z,3.46
2019-03-26T23:37:02.585Z,3.49
2019-03-26T23:39:52.529Z,3.49
2019-03-26T23:42:40.580Z,3.45
2019-03-26T23:45:28.761Z,3.36
2019-03-26T23:48:16.988Z,3.42
2019-03-26T23:51:05.179Z,3.27
2019-03-26T23:53:53.401Z,3.29
2019-03-26T23:56:41.013Z,3.26
2019-03-26T23:59:29.614Z,3.30
